createdAt,value
2018-12-17T00:00:09.912Z,23.4
2018-12-17T00:01:12.081Z,23.5
2018-12-17T00:02:14.511Z,23.4
2018-12-17T00:03:16.573Z,23.4
2018-12-17T00:04:18.982Z,23.4
2018-12-17T00:05:21.414Z,23.4
2018-12-17T00:06:23.842Z,23.3
2018-12-17T00:07:26.005Z,23.5
2018-12-17T00:08:31.944Z,23.5
2018-12-17T00:09:33.422Z,23.6
2018-12-17T00:10:35.843Z,23.4
2018-12-17T00:11:37.715Z,23.6
2018-12-17T00:12:40.141Z,23.5
2018-12-17T00:13:42.292Z,23.4
2018-12-17T00:14:44.717Z,23.6
2018-12-17T00:15:46.873Z,23.5
2018-12-17T00:16:49.295Z,23.8
2018-12-17T00:17:51.718Z,23.4
2018-12-17T00:18:54.139Z,23.6
2018-12-17T00:19:56.309Z,23.5
2018-12-17T00:20:58.711Z,23.5
2018-12-17T00:22:01.135Z,23.8
2018-12-17T00:23:03.311Z,23.5
2018-12-17T00:24:05.473Z,23.5
2018-12-17T00:25:07.634Z,23.5
2018-12-17T00:26:10.063Z,23.4
2018-12-17T00:27:12.492Z,23.5
2018-12-17T00:28:14.910Z,23.6
2018-12-17T00:29:17.339Z,23.5
2018-12-17T00:30:19.763Z,23.5
2018-12-17T00:31:22.193Z,23.5
2018-12-17T00:32:24.347Z,23.7
2018-12-17T00:33:26.773Z,23.5
2018-12-17T00:34:29.209Z,23.8
2018-12-17T00:35:31.625Z,23.8
2018-12-17T00:36:34.043Z,23.8
2018-12-17T00:37:36.181Z,23.7
2018-12-17T00:38:38.633Z,23.7
2018-12-17T00:39:40.523Z,23.5
2018-12-17T00:40:42.954Z,23.7
2018-12-17T00:41:45.092Z,23.8
2018-12-17T00:42:47.511Z,23.8
2018-12-17T00:43:49.655Z,23.5
2018-12-17T00:44:51.823Z,23.8
2018-12-17T00:45:53.983Z,23.7
2018-12-17T00:46:56.151Z,23.7
2018-12-17T00:47:58.300Z,24
2018-12-17T00:49:00.733Z,23.7
2018-12-17T00:50:02.877Z,23.9
2018-12-17T00:51:05.041Z,23.7
2018-12-17T00:52:07.467Z,23.7
2018-12-17T00:53:09.622Z,23.6
2018-12-17T00:54:12.050Z,23.7
2018-12-17T00:55:13.914Z,23.7
2018-12-17T00:56:16.356Z,23.8
2018-12-17T00:57:18.783Z,23.8
2018-12-17T00:58:20.989Z,23.7
2018-12-17T00:59:23.417Z,24
2018-12-17T01:00:25.828Z,23.9
2018-12-17T01:01:28.263Z,24
2018-12-17T01:02:30.692Z,23.9
2018-12-17T01:03:33.128Z,23.6
2018-12-17T01:04:35.553Z,23.8
2018-12-17T01:05:38.005Z,23.8
2018-12-17T01:06:40.423Z,23.7
2018-12-17T01:07:42.846Z,24.1
2018-12-17T01:08:45.278Z,23.7
2018-12-17T01:09:47.438Z,23.6
2018-12-17T01:10:49.863Z,23.8
2018-12-17T01:11:51.751Z,24.1
2018-12-17T01:12:53.912Z,24
2018-12-17T01:13:56.341Z,24.1
2018-12-17T01:14:58.251Z,24
2018-12-17T01:16:00.393Z,23.7
2018-12-17T01:17:02.538Z,24.1
2018-12-17T01:18:03.868Z,23.8
2018-12-17T01:19:06.298Z,24.3
2018-12-17T01:20:08.713Z,23.8
2018-12-17T01:21:11.188Z,23.8
2018-12-17T01:22:13.614Z,23.8
2018-12-17T01:23:16.048Z,23.8
2018-12-17T01:24:18.484Z,24
2018-12-17T01:25:20.905Z,23.7
2018-12-17T01:26:23.323Z,23.7
2018-12-17T01:27:25.463Z,23.9
2018-12-17T01:28:27.886Z,23.9
2018-12-17T01:29:30.044Z,23.7
2018-12-17T01:30:32.198Z,23.7
2018-12-17T01:31:34.640Z,24.2
2018-12-17T01:32:37.066Z,24.1
2018-12-17T01:33:39.224Z,23.7
2018-12-17T01:34:41.377Z,23.7
2018-12-17T01:35:43.809Z,23.9
2018-12-17T01:36:45.984Z,23.7
2018-12-17T01:37:47.863Z,23.9
2018-12-17T01:38:50.288Z,23.9
2018-12-17T01:39:52.721Z,23.7
2018-12-17T01:40:54.868Z,23.8
2018-12-17T01:41:57.290Z,23.9
2018-12-17T01:42:59.431Z,23.9
2018-12-17T01:44:01.866Z,23.6
2018-12-17T01:45:04.291Z,23.8
2018-12-17T01:46:06.153Z,23.8
2018-12-17T01:47:07.786Z,23.6
2018-12-17T01:48:10.214Z,24.2
2018-12-17T01:49:12.348Z,23.8
2018-12-17T01:50:14.775Z,24.2
2018-12-17T01:51:17.213Z,24.1
2018-12-17T01:52:19.632Z,24.1
2018-12-17T01:53:21.511Z,24
2018-12-17T01:54:23.940Z,24.1
2018-12-17T01:55:26.371Z,23.7
2018-12-17T01:56:28.795Z,24.2
2018-12-17T01:57:30.944Z,23.9
2018-12-17T01:58:33.368Z,23.9
2018-12-17T01:59:35.791Z,24.1
2018-12-17T02:00:37.923Z,23.8
2018-12-17T02:01:40.066Z,24.1
2018-12-17T02:02:42.496Z,24
2018-12-17T02:03:44.943Z,23.8
2018-12-17T02:04:47.358Z,24.2
2018-12-17T02:05:49.517Z,23.7
2018-12-17T02:06:51.951Z,23.6
2018-12-17T02:07:54.132Z,24.1
2018-12-17T02:08:56.297Z,24.3
2018-12-17T02:09:58.453Z,24.2
2018-12-17T02:11:00.869Z,23.6
2018-12-17T02:12:03.019Z,24
2018-12-17T02:13:05.442Z,23.9
2018-12-17T02:14:07.288Z,24.1
2018-12-17T02:15:09.131Z,23.6
2018-12-17T02:16:11.295Z,23.9
2018-12-17T02:17:13.722Z,24.2
2018-12-17T02:18:15.888Z,23.9
2018-12-17T02:19:18.310Z,24
2018-12-17T02:20:20.736Z,24.1
2018-12-17T02:21:23.154Z,24
2018-12-17T02:22:25.582Z,23.9
2018-12-17T02:23:27.482Z,23.8
2018-12-17T02:24:29.620Z,23.6
2018-12-17T02:25:31.778Z,24
2018-12-17T02:26:33.933Z,24.1
2018-12-17T02:27:36.352Z,24.1
2018-12-17T02:28:38.248Z,23.9
2018-12-17T02:29:40.682Z,24.1
2018-12-17T02:30:42.825Z,23.9
2018-12-17T02:31:44.740Z,23.9
2018-12-17T02:32:46.881Z,24.1
2018-12-17T02:33:49.312Z,23.9
2018-12-17T02:34:51.742Z,24.2
2018-12-17T02:35:53.909Z,24.3
2018-12-17T02:36:56.332Z,24
2018-12-17T02:37:58.220Z,23.9
2018-12-17T02:39:00.644Z,24
2018-12-17T02:40:02.805Z,24.1
2018-12-17T02:41:05.280Z,24
2018-12-17T02:42:07.701Z,23.9
2018-12-17T02:43:09.927Z,23.9
2018-12-17T02:44:12.351Z,23.7
2018-12-17T02:45:14.774Z,24.1
2018-12-17T02:47:33.711Z,24.2
2018-12-17T02:48:36.149Z,24.2
2018-12-17T02:49:38.572Z,24
2018-12-17T02:50:41.069Z,24.1
2018-12-17T02:51:43.505Z,24.1
2018-12-17T02:52:45.920Z,24.1
2018-12-17T02:53:48.341Z,23.9
2018-12-17T02:54:50.771Z,24.1
2018-12-17T02:55:52.931Z,23.9
2018-12-17T02:56:55.083Z,23.9
2018-12-17T02:57:57.240Z,23.8
2018-12-17T02:58:59.666Z,24
2018-12-17T03:00:01.821Z,23.9
2018-12-17T03:01:04.286Z,23.9
2018-12-17T03:02:06.711Z,24.3
2018-12-17T03:03:08.579Z,23.9
2018-12-17T03:04:11.019Z,23.8
2018-12-17T03:05:12.912Z,24
2018-12-17T03:06:15.332Z,24
2018-12-17T03:07:17.495Z,24.2
2018-12-17T03:08:19.656Z,24
2018-12-17T03:09:22.079Z,23.6
2018-12-17T03:10:24.501Z,23.9
2018-12-17T03:11:26.934Z,24
2018-12-17T03:12:29.351Z,24
2018-12-17T03:13:31.775Z,24.1
2018-12-17T03:14:33.639Z,24.4
2018-12-17T03:15:36.071Z,24.2
2018-12-17T03:16:38.508Z,24.1
2018-12-17T03:17:40.087Z,24
2018-12-17T03:18:41.944Z,24.2
2018-12-17T03:19:43.829Z,24.3
2018-12-17T03:20:45.993Z,24
2018-12-17T03:21:48.141Z,24.2
2018-12-17T03:22:50.564Z,23.9
2018-12-17T03:23:53.001Z,24
2018-12-17T03:24:55.187Z,23.9
2018-12-17T03:25:57.610Z,24.1
2018-12-17T03:26:59.503Z,24.2
2018-12-17T03:28:01.933Z,23.9
2018-12-17T03:29:04.081Z,24
2018-12-17T03:30:06.514Z,23.7
2018-12-17T03:31:08.958Z,23.9
2018-12-17T03:32:11.378Z,24.3
2018-12-17T03:33:13.528Z,24.2
2018-12-17T03:34:15.665Z,24
2018-12-17T03:35:17.828Z,24.1
2018-12-17T03:36:20.248Z,24
2018-12-17T03:37:22.412Z,23.9
2018-12-17T03:38:24.576Z,23.9
2018-12-17T03:39:26.440Z,23.9
2018-12-17T03:40:28.610Z,23.8
2018-12-17T03:41:30.820Z,24.2
2018-12-17T03:42:33.241Z,23.9
2018-12-17T03:43:35.671Z,23.8
2018-12-17T03:44:37.825Z,23.9
2018-12-17T03:45:40.240Z,23.5
2018-12-17T03:46:42.394Z,23.7
2018-12-17T03:47:44.994Z,23.9
2018-12-17T03:48:47.139Z,23.6
2018-12-17T03:49:49.035Z,23.8
2018-12-17T03:50:51.476Z,23.9
2018-12-17T03:51:53.892Z,23.9
2018-12-17T03:52:56.323Z,23.6
2018-12-17T03:53:58.202Z,23.9
2018-12-17T03:55:00.359Z,23.8
2018-12-17T03:56:02.512Z,23.9
2018-12-17T03:57:04.942Z,23.9
2018-12-17T03:58:07.361Z,23.9
2018-12-17T03:59:09.508Z,23.8
2018-12-17T04:00:11.360Z,23.9
2018-12-17T04:01:13.784Z,23.7
2018-12-17T04:02:15.912Z,24
2018-12-17T04:03:17.517Z,24.3
2018-12-17T04:04:19.946Z,24.2
2018-12-17T04:05:22.363Z,23.9
2018-12-17T04:06:24.494Z,23.9
2018-12-17T04:07:26.919Z,24
2018-12-17T04:08:29.099Z,24.2
2018-12-17T04:09:31.532Z,23.9
2018-12-17T04:10:33.675Z,23.7
2018-12-17T04:11:36.089Z,23.7
2018-12-17T04:12:38.523Z,24.2
2018-12-17T04:13:40.953Z,24.1
2018-12-17T04:14:43.093Z,24.1
2018-12-17T04:15:44.983Z,24.1
2018-12-17T04:16:47.174Z,23.7
2018-12-17T04:17:49.594Z,24.1
2018-12-17T04:18:51.717Z,23.9
2018-12-17T04:19:53.872Z,23.8
2018-12-17T04:20:56.021Z,23.8
2018-12-17T04:21:58.177Z,24
2018-12-17T04:23:00.310Z,24.3
2018-12-17T04:24:02.726Z,24
2018-12-17T04:25:04.886Z,24.1
2018-12-17T04:26:07.312Z,24.2
2018-12-17T04:27:09.467Z,24.3
2018-12-17T04:28:11.888Z,24.1
2018-12-17T04:29:14.318Z,23.8
2018-12-17T04:30:16.748Z,24.1
2018-12-17T04:31:19.181Z,24.1
2018-12-17T04:32:21.616Z,24.2
2018-12-17T04:33:23.771Z,24.2
2018-12-17T04:34:26.199Z,24.1
2018-12-17T04:35:28.622Z,24.1
2018-12-17T04:36:31.045Z,24.1
2018-12-17T04:37:32.651Z,24.1
2018-12-17T04:38:34.798Z,23.9
2018-12-17T04:39:37.228Z,23.9
2018-12-17T04:40:39.656Z,23.8
2018-12-17T04:41:41.641Z,23.9
2018-12-17T04:42:43.762Z,24.3
2018-12-17T04:43:45.891Z,24
2018-12-17T04:44:48.310Z,24
2018-12-17T04:45:50.511Z,23.9
2018-12-17T04:46:52.942Z,23.9
2018-12-17T04:47:55.378Z,24.2
2018-12-17T04:48:56.952Z,24.2
2018-12-17T04:49:59.378Z,23.9
2018-12-17T04:51:00.986Z,23.9
2018-12-17T04:52:02.862Z,24
2018-12-17T04:53:05.291Z,23.8
2018-12-17T04:54:07.417Z,24.2
2018-12-17T04:55:09.835Z,24.2
2018-12-17T04:56:12.257Z,24.2
2018-12-17T04:57:14.402Z,24
2018-12-17T04:58:16.831Z,24.2
2018-12-17T04:59:19.266Z,23.7
2018-12-17T05:00:21.676Z,23.8
2018-12-17T05:01:24.083Z,23.7
2018-12-17T05:02:26.510Z,23.9
2018-12-17T05:03:28.972Z,24
2018-12-17T05:04:31.411Z,23.8
2018-12-17T05:05:33.552Z,23.8
2018-12-17T05:06:35.694Z,24.1
2018-12-17T05:07:38.116Z,23.8
2018-12-17T05:08:40.539Z,23.8
2018-12-17T05:09:44.442Z,23.9
2018-12-17T05:10:46.702Z,24.2
2018-12-17T05:11:48.838Z,23.8
2018-12-17T05:12:51.256Z,24.3
2018-12-17T05:13:53.409Z,24.1
2018-12-17T05:14:55.823Z,23.9
2018-12-17T05:15:58.242Z,24
2018-12-17T05:17:00.448Z,24.1
2018-12-17T05:18:02.672Z,24.2
2018-12-17T05:19:05.701Z,23.7
2018-12-17T05:20:08.208Z,23.8
2018-12-17T05:21:10.625Z,23.8
2018-12-17T05:22:12.772Z,24.1
2018-12-17T05:23:14.656Z,23.8
2018-12-17T05:24:16.830Z,24.1
2018-12-17T05:25:18.731Z,23.8
2018-12-17T05:26:21.161Z,24.1
2018-12-17T05:27:23.313Z,24.1
2018-12-17T05:28:25.730Z,23.8
2018-12-17T05:29:28.152Z,24
2018-12-17T05:30:30.588Z,23.7
2018-12-17T05:31:32.997Z,24.1
2018-12-17T05:32:35.139Z,23.6
2018-12-17T05:33:37.303Z,23.8
2018-12-17T05:34:39.731Z,23.9
2018-12-17T05:35:41.884Z,23.8
2018-12-17T05:36:44.034Z,24
2018-12-17T05:37:46.458Z,23.9
2018-12-17T05:38:48.623Z,24
2018-12-17T05:39:51.052Z,23.9
2018-12-17T05:40:53.214Z,23.9
2018-12-17T05:41:55.111Z,24.1
2018-12-17T05:42:57.258Z,23.5
2018-12-17T05:43:59.428Z,23.7
2018-12-17T05:45:01.866Z,23.8
2018-12-17T05:46:04.304Z,23.8
2018-12-17T05:47:06.742Z,23.8
2018-12-17T05:48:09.172Z,23.7
2018-12-17T05:49:11.590Z,23.8
2018-12-17T05:50:14.610Z,23.8
2018-12-17T05:51:17.047Z,23.9
2018-12-17T05:52:19.475Z,24.1
2018-12-17T05:53:21.961Z,23.8
2018-12-17T05:54:24.122Z,23.9
2018-12-17T05:55:26.280Z,23.6
2018-12-17T05:56:28.699Z,23.8
2018-12-17T05:57:30.854Z,23.8
2018-12-17T05:58:32.733Z,23.9
2018-12-17T05:59:34.895Z,23.8
2018-12-17T06:00:37.335Z,23.7
2018-12-17T06:01:39.508Z,23.8
2018-12-17T06:02:41.929Z,23.9
2018-12-17T06:03:44.358Z,23.7
2018-12-17T06:04:46.783Z,24
2018-12-17T06:05:49.198Z,23.7
2018-12-17T06:06:51.082Z,23.8
2018-12-17T06:07:53.232Z,23.7
2018-12-17T06:08:55.657Z,23.9
2018-12-17T06:09:58.122Z,23.6
2018-12-17T06:11:00.558Z,23.7
2018-12-17T06:12:02.985Z,23.8
2018-12-17T06:13:05.144Z,23.7
2018-12-17T06:14:07.280Z,23.8
2018-12-17T06:15:09.170Z,23.9
2018-12-17T06:16:11.314Z,23.8
2018-12-17T06:17:13.743Z,23.7
2018-12-17T06:18:16.180Z,23.7
2018-12-17T06:19:18.671Z,23.9
2018-12-17T06:20:20.564Z,23.5
2018-12-17T06:21:23.010Z,23.8
2018-12-17T06:22:25.452Z,23.9
2018-12-17T06:23:27.959Z,23.7
2018-12-17T06:24:30.390Z,23.5
2018-12-17T06:25:32.617Z,23.6
2018-12-17T06:26:35.062Z,23.8
2018-12-17T06:27:38.611Z,23.5
2018-12-17T06:28:41.123Z,23.6
2018-12-17T06:29:42.981Z,23.6
2018-12-17T06:30:45.419Z,23.7
2018-12-17T06:31:47.864Z,23.8
2018-12-17T06:32:50.286Z,23.7
2018-12-17T06:33:52.429Z,23.5
2018-12-17T06:34:54.853Z,23.7
2018-12-17T06:35:57.276Z,23.7
2018-12-17T06:36:59.463Z,23.7
2018-12-17T06:38:01.650Z,23.6
2018-12-17T06:39:04.124Z,23.9
2018-12-17T06:40:10.099Z,23.6
2018-12-17T06:41:11.539Z,23.5
2018-12-17T06:43:31.102Z,23.6
2018-12-17T06:44:32.997Z,23.6
2018-12-17T06:45:35.437Z,23.8
2018-12-17T06:46:37.892Z,23.8
2018-12-17T06:47:40.332Z,23.6
2018-12-17T06:48:42.815Z,23.6
2018-12-17T06:49:45.309Z,23.7
2018-12-17T06:50:47.478Z,23.5
2018-12-17T06:51:49.074Z,23.5
2018-12-17T06:52:51.511Z,23.6
2018-12-17T06:53:53.400Z,23.6
2018-12-17T06:54:55.290Z,23.6
2018-12-17T06:55:57.455Z,23.4
2018-12-17T06:56:59.880Z,23.5
2018-12-17T06:58:02.312Z,23.6
2018-12-17T06:59:04.192Z,23.6
2018-12-17T07:00:06.627Z,23.4
2018-12-17T07:01:09.080Z,23.7
2018-12-17T07:02:11.243Z,23.7
2018-12-17T07:03:13.420Z,23.5
2018-12-17T07:04:15.850Z,23.7
2018-12-17T07:05:18.278Z,23.7
2018-12-17T07:06:20.699Z,23.7
2018-12-17T07:07:23.141Z,23.7
2018-12-17T07:08:25.302Z,23.5
2018-12-17T07:09:27.739Z,23.5
2018-12-17T07:10:30.208Z,23.4
2018-12-17T07:11:32.371Z,23.6
2018-12-17T07:12:34.799Z,23.5
2018-12-17T07:13:36.965Z,23.3
2018-12-17T07:14:39.391Z,23.6
2018-12-17T07:15:41.545Z,23.4
2018-12-17T07:16:43.976Z,23.5
2018-12-17T07:17:46.119Z,23.4
2018-12-17T07:18:47.994Z,23.6
2018-12-17T07:19:49.582Z,23.4
2018-12-17T07:20:51.742Z,23.5
2018-12-17T07:21:53.909Z,23.4
2018-12-17T07:22:56.343Z,23.4
2018-12-17T07:23:58.997Z,23.6
2018-12-17T07:25:01.386Z,23.6
2018-12-17T07:26:03.824Z,23.6
2018-12-17T07:27:06.272Z,23.5
2018-12-17T07:28:08.486Z,23.5
2018-12-17T07:29:10.984Z,23.4
2018-12-17T07:30:13.429Z,23.4
2018-12-17T07:31:15.863Z,23.6
2018-12-17T07:32:18.677Z,23.4
2018-12-17T07:33:21.182Z,23.5
2018-12-17T07:34:23.611Z,23.6
2018-12-17T07:35:25.757Z,23.5
2018-12-17T07:36:28.231Z,23.6
2018-12-17T07:37:30.367Z,23.6
2018-12-17T07:38:32.491Z,23.2
2018-12-17T07:39:34.359Z,23.6
2018-12-17T07:40:36.252Z,23.7
2018-12-17T07:41:38.679Z,23.4
2018-12-17T07:42:41.103Z,23.3
2018-12-17T07:43:43.537Z,23.5
2018-12-17T07:44:45.685Z,23.5
2018-12-17T07:45:47.823Z,23.5
2018-12-17T07:46:49.967Z,23.4
2018-12-17T07:47:52.131Z,23.6
2018-12-17T07:48:54.023Z,23.5
2018-12-17T07:49:56.233Z,23.5
2018-12-17T07:50:58.383Z,23.6
2018-12-17T07:52:00.818Z,23.6
2018-12-17T07:53:03.258Z,23.6
2018-12-17T07:54:05.417Z,23.7
2018-12-17T07:55:07.565Z,23.4
2018-12-17T07:56:09.731Z,23.4
2018-12-17T07:57:12.159Z,23.6
2018-12-17T07:58:14.060Z,23.6
2018-12-17T07:59:15.675Z,23.3
2018-12-17T08:00:17.842Z,23.5
2018-12-17T08:01:19.973Z,23.6
2018-12-17T08:02:21.861Z,23.6
2018-12-17T08:03:24.070Z,23.4
2018-12-17T08:04:26.495Z,23.4
2018-12-17T08:05:28.929Z,23.6
2018-12-17T08:06:31.079Z,23.6
2018-12-17T08:07:33.245Z,23.7
2018-12-17T08:08:35.812Z,23.7
2018-12-17T08:09:37.991Z,23.6
2018-12-17T08:10:40.416Z,23.5
2018-12-17T08:11:42.580Z,23.6
2018-12-17T08:12:44.987Z,23.7
2018-12-17T08:13:46.864Z,23.6
2018-12-17T08:14:49.007Z,23.6
2018-12-17T08:15:51.167Z,23.5
2018-12-17T08:16:53.313Z,23.6
2018-12-17T08:17:55.737Z,23.6
2018-12-17T08:18:58.167Z,23.5
2018-12-17T08:20:00.331Z,23.6
2018-12-17T08:21:02.769Z,23.3
2018-12-17T08:22:05.187Z,23.5
2018-12-17T08:23:07.615Z,23.6
2018-12-17T08:24:09.777Z,23.5
2018-12-17T08:25:12.221Z,23.4
2018-12-17T08:26:14.673Z,23.6
2018-12-17T08:27:16.832Z,23.3
2018-12-17T08:28:19.000Z,23.6
2018-12-17T08:29:21.431Z,23.4
2018-12-17T08:30:23.612Z,23.5
2018-12-17T08:31:25.759Z,23.6
2018-12-17T08:32:27.916Z,23.6
2018-12-17T08:33:30.080Z,23.5
2018-12-17T08:34:32.239Z,23.4
2018-12-17T08:35:34.665Z,23.6
2018-12-17T08:36:36.792Z,23.3
2018-12-17T08:37:39.283Z,23.4
2018-12-17T08:38:41.449Z,23.7
2018-12-17T08:39:43.608Z,23.6
2018-12-17T08:40:46.025Z,23.5
2018-12-17T08:41:48.458Z,23.3
2018-12-17T08:42:50.890Z,23.5
2018-12-17T08:43:53.330Z,23.5
2018-12-17T08:44:55.540Z,23.6
2018-12-17T08:45:57.971Z,23.3
2018-12-17T08:47:00.128Z,23.5
2018-12-17T08:48:02.348Z,23.6
2018-12-17T08:49:04.779Z,23.6
2018-12-17T08:50:06.932Z,23.6
2018-12-17T08:51:09.363Z,23.4
2018-12-17T08:52:11.224Z,23.5
2018-12-17T08:53:13.126Z,23.5
2018-12-17T08:54:15.563Z,23.4
2018-12-17T08:55:17.712Z,23.6
2018-12-17T08:56:20.145Z,23.7
2018-12-17T08:57:22.038Z,23.7
2018-12-17T08:58:24.452Z,23.6
2018-12-17T08:59:26.871Z,23.5
2018-12-17T09:00:29.300Z,23.4
2018-12-17T09:01:31.721Z,23.6
2018-12-17T09:02:34.154Z,23.6
2018-12-17T09:03:36.314Z,23.5
2018-12-17T09:04:38.740Z,23.5
2018-12-17T09:05:41.165Z,23.5
2018-12-17T09:06:43.594Z,23.7
2018-12-17T09:07:46.032Z,23.4
2018-12-17T09:08:48.190Z,23.4
2018-12-17T09:09:50.615Z,23.5
2018-12-17T09:10:52.772Z,23.5
2018-12-17T09:11:55.188Z,23.6
2018-12-17T09:12:57.084Z,23.3
2018-12-17T09:13:59.518Z,23.6
2018-12-17T09:15:01.104Z,23.5
2018-12-17T09:16:03.262Z,23.6
2018-12-17T09:17:05.144Z,23.6
2018-12-17T09:18:07.560Z,23.7
2018-12-17T09:19:09.983Z,23.4
2018-12-17T09:20:12.409Z,23.6
2018-12-17T09:21:14.568Z,23.7
2018-12-17T09:22:16.692Z,23.5
2018-12-17T09:23:18.848Z,23.5
2018-12-17T09:24:21.002Z,23.7
2018-12-17T09:25:23.160Z,23.6
2018-12-17T09:26:25.388Z,23.6
2018-12-17T09:27:27.275Z,23.5
2018-12-17T09:28:29.697Z,23.6
2018-12-17T09:29:31.859Z,23.6
2018-12-17T09:30:41.095Z,23.6
2018-12-17T09:31:39.258Z,23.4
2018-12-17T09:32:41.690Z,23.5
2018-12-17T09:33:44.123Z,23.6
2018-12-17T09:34:46.540Z,23.4
2018-12-17T09:35:48.700Z,23.5
2018-12-17T09:36:51.141Z,23.3
2018-12-17T09:37:53.573Z,23.4
2018-12-17T09:38:56.024Z,23.7
2018-12-17T09:39:58.447Z,23.4
2018-12-17T09:41:00.597Z,23.4
2018-12-17T09:42:02.772Z,23.5
2018-12-17T09:43:05.200Z,23.2
2018-12-17T09:44:07.622Z,23.5
2018-12-17T09:45:09.790Z,23.4
2018-12-17T09:46:11.678Z,23.4
2018-12-17T09:47:13.828Z,23.3
2018-12-17T09:48:15.984Z,23.6
2018-12-17T09:49:18.144Z,23.4
2018-12-17T09:50:20.573Z,23.4
2018-12-17T09:51:22.770Z,23.5
2018-12-17T09:52:25.258Z,23.5
2018-12-17T09:53:27.674Z,23.5
2018-12-17T09:54:29.815Z,23.4
2018-12-17T09:55:32.243Z,23.5
2018-12-17T09:56:34.139Z,23.4
2018-12-17T09:57:36.297Z,23.4
2018-12-17T09:58:38.723Z,23.3
2018-12-17T10:00:58.244Z,23.4
2018-12-17T10:02:00.665Z,23.3
2018-12-17T10:03:03.093Z,23.3
2018-12-17T10:04:04.962Z,23.5
2018-12-17T10:05:07.402Z,23.4
2018-12-17T10:06:09.822Z,23.4
2018-12-17T10:07:12.254Z,23.5
2018-12-17T10:08:14.684Z,23.4
2018-12-17T10:09:16.562Z,23.4
2018-12-17T10:10:19.000Z,23.4
2018-12-17T10:11:21.154Z,23.4
2018-12-17T10:12:23.601Z,23.3
2018-12-17T10:13:25.744Z,23.5
2018-12-17T10:14:27.888Z,23.5
2018-12-17T10:15:30.043Z,23.5
2018-12-17T10:16:32.206Z,23.6
2018-12-17T10:17:34.444Z,23.5
2018-12-17T10:18:37.104Z,23.6
2018-12-17T10:19:39.721Z,23.5
2018-12-17T10:20:41.603Z,23.3
2018-12-17T10:21:44.020Z,23.4
2018-12-17T10:22:46.445Z,23.3
2018-12-17T10:23:48.886Z,23.5
2018-12-17T10:24:51.045Z,23.4
2018-12-17T10:25:53.212Z,23.5
2018-12-17T10:26:55.638Z,23.3
2018-12-17T10:27:57.784Z,23.5
2018-12-17T10:28:59.657Z,23.2
2018-12-17T10:30:01.556Z,23.5
2018-12-17T10:31:03.784Z,23.5
2018-12-17T10:32:05.640Z,23.4
2018-12-17T10:33:08.054Z,23.4
2018-12-17T10:34:10.222Z,23.4
2018-12-17T10:35:12.656Z,23.4
2018-12-17T10:36:15.080Z,23.5
2018-12-17T10:37:17.248Z,23.4
2018-12-17T10:38:19.128Z,23.4
2018-12-17T10:39:21.300Z,23.4
2018-12-17T10:40:23.722Z,23.5
2018-12-17T10:41:26.146Z,23.5
2018-12-17T10:42:28.313Z,23.4
2018-12-17T10:43:30.739Z,23.4
2018-12-17T10:44:33.162Z,23.5
2018-12-17T10:45:35.056Z,23.4
2018-12-17T10:46:37.495Z,23.3
2018-12-17T10:47:39.642Z,23.5
2018-12-17T10:48:42.073Z,23.4
2018-12-17T10:49:44.490Z,23.2
2018-12-17T10:50:46.913Z,23.5
2018-12-17T10:51:49.324Z,23.3
2018-12-17T10:52:51.755Z,23.3
2018-12-17T10:53:53.908Z,23.4
2018-12-17T10:54:56.344Z,23.4
2018-12-17T10:55:58.778Z,23.3
2018-12-17T10:57:00.660Z,23.3
2018-12-17T10:58:03.088Z,23.3
2018-12-17T10:59:05.219Z,23.7
2018-12-17T11:00:07.643Z,23.3
2018-12-17T11:01:10.080Z,23.6
2018-12-17T11:02:12.529Z,23.6
2018-12-17T11:03:14.674Z,23.5
2018-12-17T11:04:17.096Z,23.4
2018-12-17T11:05:19.252Z,23.3
2018-12-17T11:06:21.681Z,23.5
2018-12-17T11:07:24.111Z,23.4
2018-12-17T11:08:26.264Z,23.4
2018-12-17T11:09:28.680Z,23.4
2018-12-17T11:10:31.111Z,23.4
2018-12-17T11:11:33.523Z,23.4
2018-12-17T11:12:35.660Z,23.4
2018-12-17T11:13:37.822Z,23.3
2018-12-17T11:14:40.242Z,23.5
2018-12-17T11:15:42.678Z,23.5
2018-12-17T11:16:45.094Z,23.5
2018-12-17T11:17:46.969Z,23.7
2018-12-17T11:18:49.137Z,23.5
2018-12-17T11:19:51.296Z,23.4
2018-12-17T11:20:53.782Z,23.5
2018-12-17T11:21:56.222Z,23.5
2018-12-17T11:22:58.657Z,23.3
2018-12-17T11:24:00.782Z,23.3
2018-12-17T11:25:02.970Z,23.3
2018-12-17T11:26:05.394Z,23.3
2018-12-17T11:27:07.272Z,23.5
2018-12-17T11:28:09.704Z,23.6
2018-12-17T11:29:12.122Z,23.6
2018-12-17T11:30:14.265Z,23.4
2018-12-17T11:31:16.424Z,23.6
2018-12-17T11:32:18.324Z,23.5
2018-12-17T11:33:20.766Z,23.4
2018-12-17T11:34:23.198Z,23.5
2018-12-17T11:35:25.620Z,23.5
2018-12-17T11:36:28.058Z,23.4
2018-12-17T11:37:30.215Z,23.5
2018-12-17T11:38:32.647Z,23.5
2018-12-17T11:39:35.081Z,23.4
2018-12-17T11:40:37.517Z,23.6
2018-12-17T11:41:39.648Z,23.5
2018-12-17T11:42:42.068Z,23.6
2018-12-17T11:43:44.498Z,23.4
2018-12-17T11:44:46.925Z,23.5
2018-12-17T11:45:49.085Z,23.6
2018-12-17T11:46:51.513Z,23.5
2018-12-17T11:47:53.401Z,23.5
2018-12-17T11:48:55.830Z,23.5
2018-12-17T11:49:57.984Z,23.6
2018-12-17T11:51:00.139Z,23.7
2018-12-17T11:52:02.558Z,23.3
2018-12-17T11:53:04.720Z,23.5
2018-12-17T11:54:06.877Z,23.4
2018-12-17T11:55:09.037Z,23.5
2018-12-17T11:56:11.209Z,23.6
2018-12-17T11:57:13.369Z,23.5
2018-12-17T11:58:15.792Z,23.5
2018-12-17T11:59:18.225Z,23.4
2018-12-17T12:00:20.383Z,23.6
2018-12-17T12:01:22.803Z,23.5
2018-12-17T12:02:25.235Z,23.6
2018-12-17T12:03:27.387Z,23.4
2018-12-17T12:04:29.823Z,23.5
2018-12-17T12:05:32.343Z,23.4
2018-12-17T12:06:34.488Z,23.5
2018-12-17T12:07:36.354Z,23.3
2018-12-17T12:08:38.777Z,23.5
2018-12-17T12:09:41.212Z,23.6
2018-12-17T12:10:43.362Z,23.5
2018-12-17T12:11:45.801Z,23.4
2018-12-17T12:12:47.687Z,23.5
2018-12-17T12:13:50.113Z,23.6
2018-12-17T12:14:52.262Z,23.4
2018-12-17T12:15:54.704Z,23.5
2018-12-17T12:16:57.140Z,23.4
2018-12-17T12:17:59.286Z,23.2
2018-12-17T12:19:01.715Z,23.5
2018-12-17T12:20:04.172Z,23.5
2018-12-17T12:21:06.599Z,23.6
2018-12-17T12:22:09.033Z,23.5
2018-12-17T12:23:10.909Z,23.5
2018-12-17T12:24:13.334Z,23.4
2018-12-17T12:25:15.493Z,23.2
2018-12-17T12:26:17.923Z,23.5
2018-12-17T12:27:20.079Z,23.5
2018-12-17T12:28:22.501Z,23.5
2018-12-17T12:29:24.648Z,23.5
2018-12-17T12:30:27.091Z,23.5
2018-12-17T12:31:29.523Z,23.3
2018-12-17T12:32:31.681Z,23.5
2018-12-17T12:33:33.831Z,23.5
2018-12-17T12:34:35.958Z,23.6
2018-12-17T12:35:38.392Z,23.3
2018-12-17T12:36:40.817Z,23.5
2018-12-17T12:37:43.002Z,23.5
2018-12-17T12:38:45.173Z,23.4
2018-12-17T12:39:47.333Z,23.5
2018-12-17T12:40:49.493Z,23.5
2018-12-17T12:41:51.633Z,23.5
2018-12-17T12:42:54.065Z,23.4
2018-12-17T12:43:55.944Z,23.4
2018-12-17T12:44:58.091Z,23.6
2018-12-17T12:46:00.241Z,23.6
2018-12-17T12:47:02.671Z,23.3
2018-12-17T12:48:04.839Z,23.4
2018-12-17T12:49:06.986Z,23.4
2018-12-17T12:50:09.409Z,23.5
2018-12-17T12:51:11.843Z,23.4
2018-12-17T12:52:14.275Z,23.4
2018-12-17T12:53:16.701Z,23.6
2018-12-17T12:54:18.862Z,23.6
2018-12-17T12:55:21.035Z,23.4
2018-12-17T12:56:23.208Z,23.4
2018-12-17T12:57:25.676Z,23.5
2018-12-17T12:58:27.833Z,23.5
2018-12-17T12:59:29.993Z,23.4
2018-12-17T13:00:31.879Z,23.3
2018-12-17T13:01:34.313Z,23.6
2018-12-17T13:02:36.202Z,23.5
2018-12-17T13:03:38.350Z,23.5
2018-12-17T13:04:40.786Z,23.6
2018-12-17T13:05:42.942Z,23.5
2018-12-17T13:06:45.375Z,23.5
2018-12-17T13:07:47.535Z,23.5
2018-12-17T13:08:49.967Z,23.4
2018-12-17T13:09:52.182Z,23.5
2018-12-17T13:10:54.626Z,23.6
2018-12-17T13:11:56.752Z,23.5
2018-12-17T13:12:59.185Z,23.6
2018-12-17T13:14:01.627Z,23.5
2018-12-17T13:15:03.785Z,23.5
2018-12-17T13:16:05.923Z,23.6
2018-12-17T13:17:08.359Z,23.5
2018-12-17T13:18:10.805Z,23.7
2018-12-17T13:19:12.962Z,23.5
2018-12-17T13:20:14.601Z,23.5
2018-12-17T13:21:16.791Z,23.6
2018-12-17T13:22:18.670Z,23.5
2018-12-17T13:23:20.831Z,23.5
2018-12-17T13:24:23.263Z,23.6
2018-12-17T13:25:25.738Z,23.6
2018-12-17T13:26:27.902Z,23.4
2018-12-17T13:27:30.075Z,23.5
2018-12-17T13:28:32.499Z,23.6
2018-12-17T13:29:34.936Z,23.7
2018-12-17T13:30:37.096Z,23.5
2018-12-17T13:31:39.537Z,23.5
2018-12-17T13:32:41.970Z,23.4
2018-12-17T13:33:44.387Z,23.5
2018-12-17T13:34:46.545Z,23.3
2018-12-17T13:35:48.982Z,23.4
2018-12-17T13:36:51.393Z,23.5
2018-12-17T13:37:53.830Z,23.5
2018-12-17T13:38:56.251Z,23.6
2018-12-17T13:39:58.416Z,23.4
2018-12-17T13:41:00.574Z,23.6
2018-12-17T13:42:03.021Z,23.4
2018-12-17T13:43:04.883Z,23.4
2018-12-17T13:44:06.741Z,23.7
2018-12-17T13:45:08.928Z,23.3
2018-12-17T13:46:11.358Z,23.3
2018-12-17T13:47:13.526Z,23.6
2018-12-17T13:48:15.687Z,23.5
2018-12-17T13:49:17.584Z,23.4
2018-12-17T13:50:20.009Z,23.4
2018-12-17T13:51:22.184Z,23.5
2018-12-17T13:52:24.362Z,23.6
2018-12-17T13:53:26.506Z,23.6
2018-12-17T13:54:28.936Z,23.7
2018-12-17T13:55:31.367Z,23.5